createdAt,value
2023-01-26T00:01:53.664Z,5.45
2023-01-26T00:04:21.767Z,5.30
2023-01-26T00:06:49.822Z,5.32
2023-01-26T00:09:17.872Z,5.17
2023-01-26T00:11:45.906Z,5.23
2023-01-26T00:14:13.979Z,5.25
2023-01-26T00:16:43.518Z,5.12
2023-01-26T00:19:11.765Z,5.20
2023-01-26T00:21:40.094Z,5.12
2023-01-26T00:24:08.904Z,5.18
2023-01-26T00:26:37.110Z,5.18
2023-01-26T00:29:05.414Z,5.24
2023-01-26T00:31:33.655Z,5.23
2023-01-26T00:34:03.423Z,5.18
2023-01-26T00:36:31.719Z,5.21
2023-01-26T00:39:02.191Z,5.21
2023-01-26T00:41:48.089Z,5.40
2023-01-26T00:44:17.058Z,5.36
2023-01-26T00:46:45.322Z,5.42
2023-01-26T00:49:15.024Z,5.47
2023-01-26T00:51:43.282Z,5.47
2023-01-26T00:54:11.621Z,5.39
2023-01-26T00:56:40.531Z,5.46
2023-01-26T00:59:08.945Z,5.42
2023-01-26T01:01:38.175Z,5.49
2023-01-26T01:04:07.924Z,5.54
2023-01-26T01:06:37.884Z,5.54
2023-01-26T01:09:06.150Z,5.55
2023-01-26T01:11:34.558Z,5.50
2023-01-26T01:14:02.940Z,5.51
2023-01-26T01:16:31.273Z,5.52
2023-01-26T01:18:59.545Z,5.47
2023-01-26T01:21:28.142Z,5.62
2023-01-26T01:23:57.861Z,5.52
2023-01-26T01:26:27.029Z,5.45
2023-01-26T01:28:56.154Z,5.33
2023-01-26T01:31:25.022Z,5.21
2023-01-26T01:33:54.271Z,5.39
2023-01-26T01:36:22.830Z,5.62
2023-01-26T01:38:53.293Z,5.59
2023-01-26T01:41:23.965Z,5.79
2023-01-26T01:44:12.276Z,5.87
2023-01-26T01:46:44.631Z,6.04
2023-01-26T01:49:18.877Z,6.07
2023-01-26T01:51:52.339Z,6.16
2023-01-26T01:54:27.704Z,6.11
2023-01-26T01:57:00.946Z,6.13
2023-01-26T01:59:30.166Z,6.17
2023-01-26T02:01:58.696Z,6.12
2023-01-26T02:04:28.413Z,6.14
2023-01-26T02:06:59.750Z,6.10
2023-01-26T02:09:50.066Z,6.07
2023-01-26T02:12:23.484Z,6.05
2023-01-26T02:14:54.202Z,6.01
2023-01-26T02:17:23.087Z,6.00
2023-01-26T02:20:01.630Z,6.09
2023-01-26T02:22:37.829Z,6.07
2023-01-26T02:25:14.006Z,6.05
2023-01-26T02:27:44.376Z,6.09
2023-01-26T02:30:15.079Z,6.09
2023-01-26T02:32:44.402Z,6.12
2023-01-26T02:35:12.680Z,6.14
2023-01-26T02:37:41.097Z,6.17
2023-01-26T02:40:17.559Z,6.20
2023-01-26T02:42:47.270Z,6.21
2023-01-26T02:45:17.982Z,6.20
2023-01-26T02:47:47.721Z,6.24
2023-01-26T02:50:15.757Z,6.31
2023-01-26T02:52:45.573Z,6.27
2023-01-26T02:55:28.850Z,6.24
2023-01-26T02:58:00.562Z,6.28
2023-01-26T03:00:32.547Z,6.23
2023-01-26T03:03:02.762Z,6.26
2023-01-26T03:05:32.357Z,6.26
2023-01-26T03:08:01.231Z,6.25
2023-01-26T03:10:36.426Z,6.31
2023-01-26T03:13:06.428Z,6.34
2023-01-26T03:15:51.586Z,6.31
2023-01-26T03:18:40.226Z,6.25
2023-01-26T03:21:29.959Z,6.22
2023-01-26T03:24:15.987Z,6.33
2023-01-26T03:27:02.419Z,6.26
2023-01-26T03:29:33.222Z,6.33
2023-01-26T03:32:02.738Z,6.36
2023-01-26T03:34:31.801Z,6.38
2023-01-26T03:37:00.922Z,6.38
2023-01-26T03:39:53.932Z,6.39
2023-01-26T03:42:39.980Z,6.33
2023-01-26T03:45:28.090Z,6.34
2023-01-26T03:48:22.529Z,6.30
2023-01-26T03:51:08.345Z,6.34
2023-01-26T03:53:54.390Z,6.35
2023-01-26T03:56:23.281Z,6.38
2023-01-26T03:58:55.519Z,6.43
2023-01-26T04:01:28.797Z,6.42
2023-01-26T04:04:17.445Z,6.31
2023-01-26T04:07:07.343Z,6.39
2023-01-26T04:09:39.538Z,6.41
2023-01-26T04:12:10.451Z,6.42
2023-01-26T04:15:03.774Z,6.39
2023-01-26T04:17:51.581Z,6.41
2023-01-26T04:20:37.418Z,6.45
2023-01-26T04:23:05.766Z,6.38
2023-01-26T04:25:34.522Z,6.45
2023-01-26T04:28:03.003Z,6.43
2023-01-26T04:30:31.434Z,6.44
2023-01-26T04:33:01.716Z,6.51
2023-01-26T04:35:30.544Z,6.60
2023-01-26T04:37:59.104Z,6.48
2023-01-26T04:40:28.234Z,6.50
2023-01-26T04:42:56.617Z,6.55
2023-01-26T04:45:25.039Z,6.51
2023-01-26T04:47:54.256Z,6.54
2023-01-26T04:50:23.992Z,6.64
2023-01-26T04:52:52.418Z,6.65
2023-01-26T04:55:21.310Z,6.63
2023-01-26T04:57:49.684Z,6.60
2023-01-26T05:00:18.494Z,6.59
2023-01-26T05:02:46.783Z,6.60
2023-01-26T05:05:15.804Z,6.58
2023-01-26T05:07:45.944Z,6.52
2023-01-26T05:10:15.965Z,6.55
2023-01-26T05:13:18.436Z,6.59
2023-01-26T05:16:16.205Z,6.59
2023-01-26T05:19:07.280Z,6.60
2023-01-26T05:21:58.413Z,6.66
2023-01-26T05:24:28.484Z,6.63
2023-01-26T05:27:16.122Z,6.71
2023-01-26T05:29:45.752Z,6.79
2023-01-26T05:32:14.594Z,6.73
2023-01-26T05:34:43.239Z,6.78
2023-01-26T05:37:14.534Z,6.79
2023-01-26T05:39:46.833Z,6.76
2023-01-26T05:42:15.437Z,6.72
2023-01-26T05:45:02.032Z,6.75
2023-01-26T05:47:31.267Z,6.83
2023-01-26T05:49:59.579Z,6.87
2023-01-26T05:52:31.483Z,6.88
2023-01-26T05:55:01.580Z,6.88
2023-01-26T05:57:29.946Z,6.91
2023-01-26T06:00:02.007Z,6.89
2023-01-26T06:02:31.525Z,6.91
2023-01-26T06:04:59.893Z,6.88
2023-01-26T06:07:28.155Z,6.93
2023-01-26T06:10:11.167Z,6.95
2023-01-26T06:12:49.168Z,6.94
2023-01-26T06:15:34.543Z,6.93
2023-01-26T06:18:02.907Z,6.94
2023-01-26T06:20:31.278Z,6.94
2023-01-26T06:23:02.220Z,6.97
2023-01-26T06:25:34.651Z,6.95
2023-01-26T06:28:04.069Z,7.01
2023-01-26T06:30:33.104Z,6.95
2023-01-26T06:33:04.088Z,6.98
2023-01-26T06:35:37.183Z,7.02
2023-01-26T06:38:08.386Z,7.04
2023-01-26T06:40:38.126Z,7.05
2023-01-26T06:43:06.863Z,7.08
2023-01-26T06:45:35.436Z,7.11
2023-01-26T06:48:03.803Z,7.12
2023-01-26T06:50:34.165Z,7.16
2023-01-26T06:53:05.551Z,7.13
2023-01-26T06:55:53.342Z,7.18
2023-01-26T06:58:36.399Z,7.16
2023-01-26T07:01:40.577Z,7.15
2023-01-26T07:04:09.116Z,7.16
2023-01-26T07:06:37.412Z,7.19
2023-01-26T07:09:06.108Z,7.17
2023-01-26T07:11:35.731Z,7.20
2023-01-26T07:14:04.090Z,7.22
2023-01-26T07:16:33.829Z,7.26
2023-01-26T07:19:02.416Z,7.27
2023-01-26T07:21:30.741Z,7.28
2023-01-26T07:23:58.956Z,7.35
2023-01-26T07:26:27.322Z,7.43
2023-01-26T07:28:56.989Z,7.45
2023-01-26T07:31:25.276Z,7.44
2023-01-26T07:33:53.886Z,7.46
2023-01-26T07:36:22.123Z,7.48
2023-01-26T07:38:50.469Z,7.54
2023-01-26T07:41:18.776Z,7.55
2023-01-26T07:43:47.110Z,7.59
2023-01-26T07:46:16.784Z,7.65
2023-01-26T07:48:45.064Z,7.71
2023-01-26T07:51:13.763Z,7.73
2023-01-26T07:53:43.602Z,7.74
2023-01-26T07:56:13.693Z,7.74
2023-01-26T07:58:42.253Z,7.76
2023-01-26T08:01:12.375Z,7.76
2023-01-26T08:03:42.786Z,7.74
2023-01-26T08:06:12.987Z,7.75
2023-01-26T08:08:43.818Z,7.79
2023-01-26T08:11:13.516Z,7.83
2023-01-26T08:13:41.829Z,7.84
2023-01-26T08:16:12.789Z,7.86
2023-01-26T08:18:44.024Z,7.86
2023-01-26T08:21:13.661Z,7.85
2023-01-26T08:23:42.154Z,7.86
2023-01-26T08:26:13.104Z,7.86
2023-01-26T08:28:42.007Z,7.86
2023-01-26T08:31:12.982Z,7.86
2023-01-26T08:33:43.734Z,7.81
2023-01-26T08:36:13.734Z,7.78
2023-01-26T08:38:42.571Z,7.78
2023-01-26T08:41:11.432Z,7.76
2023-01-26T08:43:39.841Z,7.70
2023-01-26T08:46:08.248Z,7.67
2023-01-26T08:48:37.539Z,7.62
2023-01-26T08:51:08.583Z,7.59
2023-01-26T08:53:38.208Z,7.55
2023-01-26T08:56:08.887Z,7.53
2023-01-26T08:58:37.625Z,7.54
2023-01-26T09:01:06.647Z,7.53
2023-01-26T09:03:35.001Z,7.50
2023-01-26T09:06:04.443Z,7.47
2023-01-26T09:08:34.232Z,7.46
2023-01-26T09:11:02.719Z,7.44
2023-01-26T09:13:34.019Z,7.43
2023-01-26T09:16:05.176Z,7.45
2023-01-26T09:18:33.738Z,7.86
2023-01-26T09:21:05.919Z,8.53
2023-01-26T09:23:36.359Z,9.24
2023-01-26T09:26:04.830Z,9.97
2023-01-26T09:28:33.111Z,10.39
2023-01-26T09:31:05.187Z,10.41
2023-01-26T09:33:33.675Z,10.37
2023-01-26T09:36:05.776Z,10.29
2023-01-26T09:38:35.577Z,10.54
2023-01-26T09:41:08.640Z,11.10
2023-01-26T09:43:41.705Z,11.56
2023-01-26T09:46:23.003Z,12.27
2023-01-26T09:49:01.420Z,13.05
2023-01-26T09:51:36.058Z,13.80
2023-01-26T09:54:16.089Z,14.42
2023-01-26T09:56:44.457Z,14.96
2023-01-26T09:59:22.107Z,15.52
2023-01-26T10:01:55.310Z,16.00
2023-01-26T10:04:33.666Z,16.50
2023-01-26T10:07:04.121Z,16.65
2023-01-26T10:09:51.724Z,16.88
2023-01-26T10:12:24.167Z,17.21
2023-01-26T10:14:57.634Z,17.55
2023-01-26T10:17:32.059Z,18.02
2023-01-26T10:20:06.752Z,18.42
2023-01-26T10:22:43.902Z,18.85
2023-01-26T10:25:17.687Z,18.97
2023-01-26T10:27:46.294Z,19.18
2023-01-26T10:30:15.637Z,19.56
2023-01-26T10:32:46.285Z,19.47
2023-01-26T10:35:18.601Z,19.73
2023-01-26T10:37:47.335Z,19.55
2023-01-26T10:40:17.796Z,19.57
2023-01-26T10:42:57.557Z,19.73
2023-01-26T10:45:28.673Z,19.95
2023-01-26T10:48:15.317Z,20.11
2023-01-26T10:50:43.702Z,20.07
2023-01-26T10:53:17.595Z,20.29
2023-01-26T10:56:01.108Z,20.54
2023-01-26T10:58:48.028Z,20.73
2023-01-26T11:01:18.962Z,21.18
2023-01-26T11:04:03.227Z,21.32
2023-01-26T11:06:32.559Z,21.25
2023-01-26T11:09:12.645Z,21.48
2023-01-26T11:11:43.045Z,21.72
2023-01-26T11:14:13.941Z,21.54
2023-01-26T11:16:46.616Z,21.32
2023-01-26T11:19:20.168Z,21.10
2023-01-26T11:21:54.431Z,21.52
2023-01-26T11:24:28.039Z,21.45
2023-01-26T11:27:19.285Z,21.32
2023-01-26T11:30:25.747Z,21.47
2023-01-26T11:33:00.471Z,21.45
2023-01-26T11:35:38.722Z,21.23
2023-01-26T11:38:23.490Z,20.57
2023-01-26T11:41:01.413Z,20.31
2023-01-26T11:43:54.870Z,20.01
2023-01-26T11:46:43.983Z,19.67
2023-01-26T11:49:27.555Z,19.62
2023-01-26T11:52:08.707Z,18.71
2023-01-26T11:54:56.538Z,17.91
2023-01-26T11:57:31.278Z,18.10
2023-01-26T12:00:05.486Z,18.93
2023-01-26T12:02:43.253Z,19.06
2023-01-26T12:05:17.966Z,18.98
2023-01-26T12:07:55.658Z,19.21
2023-01-26T12:10:28.931Z,19.32
2023-01-26T12:13:04.377Z,19.16
2023-01-26T12:15:35.978Z,19.10
2023-01-26T12:18:15.527Z,19.43
2023-01-26T12:20:47.285Z,20.14
2023-01-26T12:23:26.083Z,20.48
2023-01-26T12:25:58.179Z,20.93
2023-01-26T12:28:32.281Z,20.90
2023-01-26T12:31:09.205Z,20.54
2023-01-26T12:33:38.714Z,19.67
2023-01-26T12:36:29.131Z,19.10
2023-01-26T12:39:08.113Z,18.62
2023-01-26T12:41:54.079Z,18.19
2023-01-26T12:44:33.561Z,17.63
2023-01-26T12:47:10.753Z,17.37
2023-01-26T12:49:44.456Z,17.55
2023-01-26T12:52:18.549Z,18.12
2023-01-26T12:54:51.686Z,17.99
2023-01-26T12:57:22.993Z,17.63
2023-01-26T12:59:52.349Z,17.19
2023-01-26T13:02:28.679Z,16.80
2023-01-26T13:04:58.804Z,16.50
2023-01-26T13:07:29.698Z,17.11
2023-01-26T13:10:21.965Z,18.29
2023-01-26T13:12:51.590Z,18.99
2023-01-26T13:15:21.610Z,18.76
2023-01-26T13:17:53.862Z,18.15
2023-01-26T13:20:45.067Z,17.38
2023-01-26T13:23:39.278Z,16.79
2023-01-26T13:26:32.703Z,16.43
2023-01-26T13:29:31.842Z,15.75
2023-01-26T13:32:18.071Z,15.32
2023-01-26T13:34:53.673Z,15.15
2023-01-26T13:37:29.103Z,15.06
2023-01-26T13:40:01.430Z,15.11
2023-01-26T13:42:39.042Z,15.17
2023-01-26T13:45:18.310Z,15.10
2023-01-26T13:47:50.271Z,15.02
2023-01-26T13:50:31.378Z,14.97
2023-01-26T13:53:00.283Z,14.89
2023-01-26T13:55:31.732Z,14.82
2023-01-26T13:58:12.250Z,14.70
2023-01-26T14:00:40.384Z,14.77
2023-01-26T14:03:22.078Z,14.75
2023-01-26T14:05:58.673Z,14.73
2023-01-26T14:08:27.142Z,14.68
2023-01-26T14:10:55.451Z,14.63
2023-01-26T14:13:29.535Z,14.55
2023-01-26T14:16:00.527Z,14.50
2023-01-26T14:18:28.850Z,14.44
2023-01-26T14:21:05.090Z,14.32
2023-01-26T14:23:35.982Z,14.22
2023-01-26T14:26:06.598Z,14.24
2023-01-26T14:28:36.964Z,14.29
2023-01-26T14:31:10.341Z,14.27
2023-01-26T14:33:38.676Z,14.23
2023-01-26T14:36:15.101Z,14.23
2023-01-26T14:38:45.391Z,14.07
2023-01-26T14:41:19.894Z,14.03
2023-01-26T14:43:50.047Z,14.05
2023-01-26T14:46:24.530Z,14.05
2023-01-26T14:48:57.776Z,14.01
2023-01-26T14:51:28.859Z,14.11
2023-01-26T14:53:59.684Z,14.21
2023-01-26T14:56:36.819Z,14.08
2023-01-26T14:59:05.728Z,14.17
2023-01-26T15:01:34.614Z,14.14
2023-01-26T15:04:04.894Z,14.09
2023-01-26T15:06:34.674Z,13.88
2023-01-26T15:09:05.990Z,14.01
2023-01-26T15:11:53.919Z,13.94
2023-01-26T15:14:33.435Z,13.89
2023-01-26T15:17:01.625Z,13.89
2023-01-26T15:19:34.047Z,13.84
2023-01-26T15:22:03.443Z,13.79
2023-01-26T15:24:31.585Z,13.76
2023-01-26T15:27:06.645Z,13.38
2023-01-26T15:29:36.037Z,13.39
2023-01-26T15:32:04.134Z,13.21
2023-01-26T15:34:36.737Z,13.29
2023-01-26T15:37:28.828Z,13.04
2023-01-26T15:39:56.905Z,13.08
2023-01-26T15:42:28.095Z,13.11
2023-01-26T15:44:56.276Z,12.78
2023-01-26T15:47:24.635Z,12.60
2023-01-26T15:49:52.811Z,12.43
2023-01-26T15:52:25.821Z,12.36
2023-01-26T15:54:54.089Z,12.36
2023-01-26T15:57:22.268Z,12.40
2023-01-26T15:59:50.286Z,12.45
2023-01-26T16:02:20.200Z,12.34
2023-01-26T16:04:48.557Z,12.29
2023-01-26T16:07:19.145Z,12.27
2023-01-26T16:09:49.119Z,12.30
2023-01-26T16:12:31.222Z,12.22
2023-01-26T16:15:00.186Z,12.13
2023-01-26T16:17:28.368Z,12.11
2023-01-26T16:19:56.436Z,12.11
2023-01-26T16:22:24.568Z,12.08
2023-01-26T16:24:53.952Z,12.02
2023-01-26T16:27:22.662Z,12.29
2023-01-26T16:29:50.773Z,12.36
2023-01-26T16:32:27.470Z,12.37
2023-01-26T16:34:55.531Z,12.11
2023-01-26T16:37:23.549Z,11.97
2023-01-26T16:39:52.929Z,11.91
2023-01-26T16:42:22.429Z,12.19
2023-01-26T16:44:50.632Z,12.32
2023-01-26T16:47:18.705Z,12.33
2023-01-26T16:49:47.489Z,12.33
2023-01-26T16:52:15.539Z,12.12
2023-01-26T16:54:45.602Z,12.26
2023-01-26T16:57:15.218Z,11.98
2023-01-26T16:59:43.286Z,11.83
2023-01-26T17:02:23.460Z,11.76
2023-01-26T17:04:51.515Z,11.74
2023-01-26T17:07:19.739Z,11.71
2023-01-26T17:09:47.794Z,11.66
2023-01-26T17:12:17.306Z,11.59
2023-01-26T17:14:45.420Z,11.54
2023-01-26T17:17:13.558Z,11.46
2023-01-26T17:19:41.585Z,11.33
2023-01-26T17:22:09.606Z,11.25
2023-01-26T17:24:37.651Z,11.19
2023-01-26T17:27:05.859Z,11.14
2023-01-26T17:29:35.340Z,11.07
2023-01-26T17:32:03.569Z,11.01
2023-01-26T17:34:31.617Z,10.92
2023-01-26T17:37:00.465Z,10.88
2023-01-26T17:39:28.685Z,10.84
2023-01-26T17:41:56.713Z,10.81
2023-01-26T17:44:24.778Z,10.73
2023-01-26T17:46:54.122Z,10.63
2023-01-26T17:49:22.526Z,10.52
2023-01-26T17:51:50.527Z,10.42
2023-01-26T17:54:19.471Z,10.29
2023-01-26T17:56:47.483Z,10.20
2023-01-26T17:59:15.552Z,10.09
2023-01-26T18:01:43.563Z,10.03
2023-01-26T18:04:13.005Z,9.95
2023-01-26T18:06:41.036Z,9.84
2023-01-26T18:09:09.173Z,9.74
2023-01-26T18:11:37.393Z,9.65
2023-01-26T18:14:05.482Z,9.82
2023-01-26T18:16:33.749Z,9.75
2023-01-26T18:19:04.374Z,9.91
2023-01-26T18:21:34.870Z,9.75
2023-01-26T18:24:04.326Z,9.51
2023-01-26T18:26:34.643Z,9.41
2023-01-26T18:29:03.264Z,9.34
2023-01-26T18:31:33.491Z,9.31
2023-01-26T18:34:02.983Z,9.25
2023-01-26T18:36:31.480Z,9.22
2023-01-26T18:39:03.009Z,9.19
2023-01-26T18:41:31.655Z,9.21
2023-01-26T18:44:00.473Z,9.26
2023-01-26T18:46:30.862Z,9.26
2023-01-26T18:49:00.865Z,9.24
2023-01-26T18:51:29.729Z,9.25
2023-01-26T18:53:58.440Z,9.27
2023-01-26T18:56:28.307Z,9.26
2023-01-26T18:58:56.478Z,9.29
2023-01-26T19:01:25.921Z,9.25
2023-01-26T19:03:55.797Z,9.27
2023-01-26T19:06:26.136Z,9.33
2023-01-26T19:08:58.831Z,9.30
2023-01-26T19:11:30.709Z,9.62
2023-01-26T19:13:59.426Z,9.59
2023-01-26T19:16:28.938Z,9.35
2023-01-26T19:18:57.481Z,9.26
2023-01-26T19:21:27.570Z,9.25
2023-01-26T19:23:58.529Z,9.23
2023-01-26T19:26:29.790Z,9.19
2023-01-26T19:28:58.353Z,9.18
2023-01-26T19:31:27.633Z,9.20
2023-01-26T19:33:57.427Z,9.24
2023-01-26T19:36:26.291Z,9.30
2023-01-26T19:38:54.408Z,9.32
2023-01-26T19:41:23.814Z,9.36
2023-01-26T19:43:53.301Z,9.34
2023-01-26T19:46:21.935Z,9.29
2023-01-26T19:48:50.273Z,9.24
2023-01-26T19:51:19.790Z,9.21
2023-01-26T19:53:49.766Z,9.18
2023-01-26T19:56:19.791Z,9.17
2023-01-26T19:58:51.182Z,9.24
2023-01-26T20:01:22.124Z,9.18
2023-01-26T20:03:51.814Z,9.17
2023-01-26T20:06:21.908Z,9.15
2023-01-26T20:08:50.050Z,9.15
2023-01-26T20:11:19.819Z,9.15
2023-01-26T20:13:47.847Z,9.14
2023-01-26T20:16:15.975Z,9.16
2023-01-26T20:18:45.443Z,9.15
2023-01-26T20:21:13.511Z,9.15
2023-01-26T20:23:53.681Z,9.18
2023-01-26T20:26:23.134Z,9.22
2023-01-26T20:28:51.787Z,9.26
2023-01-26T20:31:21.886Z,9.33
2023-01-26T20:33:53.378Z,9.40
2023-01-26T20:36:24.189Z,9.49
2023-01-26T20:38:52.394Z,9.59
2023-01-26T20:41:22.963Z,9.64
2023-01-26T20:43:59.671Z,9.66
2023-01-26T20:46:30.572Z,9.75
2023-01-26T20:49:00.319Z,9.84
2023-01-26T20:51:30.857Z,9.92
2023-01-26T20:53:59.340Z,9.84
2023-01-26T20:56:27.853Z,9.84
2023-01-26T20:58:56.922Z,10.06
2023-01-26T21:01:25.951Z,10.34
2023-01-26T21:03:54.690Z,10.39
2023-01-26T21:06:26.162Z,10.46
2023-01-26T21:08:56.813Z,10.48
2023-01-26T21:11:27.000Z,10.26
2023-01-26T21:13:56.507Z,10.19
2023-01-26T21:16:25.211Z,10.14
2023-01-26T21:18:53.328Z,10.18
2023-01-26T21:21:23.479Z,10.20
2023-01-26T21:23:52.013Z,10.21
2023-01-26T21:26:22.476Z,10.22
2023-01-26T21:28:52.210Z,10.30
2023-01-26T21:31:21.998Z,10.26
2023-01-26T21:33:50.743Z,10.28
2023-01-26T21:36:21.086Z,10.31
2023-01-26T21:38:52.535Z,10.29
2023-01-26T21:41:39.574Z,10.26
2023-01-26T21:44:09.504Z,10.28
2023-01-26T21:46:37.587Z,10.34
2023-01-26T21:49:06.857Z,10.34
2023-01-26T21:51:52.631Z,10.35
2023-01-26T21:54:22.238Z,10.33
2023-01-26T21:56:50.319Z,10.39
2023-01-26T21:59:18.218Z,10.43
2023-01-26T22:01:47.688Z,10.45
2023-01-26T22:04:18.928Z,10.40
2023-01-26T22:06:47.014Z,10.35
2023-01-26T22:09:17.211Z,10.39
2023-01-26T22:11:46.928Z,10.39
2023-01-26T22:14:16.717Z,10.42
2023-01-26T22:16:45.168Z,10.44
2023-01-26T22:19:13.978Z,10.48
2023-01-26T22:21:42.177Z,10.50
2023-01-26T22:24:12.234Z,10.52
2023-01-26T22:26:40.921Z,10.55
2023-01-26T22:29:12.681Z,10.50
2023-01-26T22:31:41.856Z,10.46
2023-01-26T22:34:11.665Z,10.48
2023-01-26T22:36:40.215Z,10.42
2023-01-26T22:39:08.440Z,10.44
2023-01-26T22:41:37.665Z,10.45
2023-01-26T22:44:05.971Z,10.44
2023-01-26T22:46:36.811Z,10.37
2023-01-26T22:49:05.955Z,10.43
2023-01-26T22:51:37.443Z,10.42
2023-01-26T22:54:06.432Z,10.42
2023-01-26T22:56:34.637Z,10.48
2023-01-26T22:59:02.767Z,10.48
2023-01-26T23:01:32.948Z,10.49
2023-01-26T23:04:02.795Z,10.43
2023-01-26T23:06:31.207Z,10.46
2023-01-26T23:09:01.102Z,10.49
2023-01-26T23:11:30.493Z,10.48
2023-01-26T23:14:00.571Z,10.49
2023-01-26T23:16:29.435Z,10.50
2023-01-26T23:18:59.093Z,10.52
2023-01-26T23:21:29.789Z,10.49
2023-01-26T23:23:58.062Z,10.51
2023-01-26T23:26:26.147Z,10.55
2023-01-26T23:28:54.214Z,10.56
2023-01-26T23:31:22.452Z,10.56
2023-01-26T23:33:50.587Z,10.57
2023-01-26T23:36:18.619Z,10.59
2023-01-26T23:38:48.133Z,10.60
2023-01-26T23:41:16.551Z,10.62
2023-01-26T23:43:44.539Z,10.62
2023-01-26T23:46:13.158Z,10.65
2023-01-26T23:48:41.662Z,10.65
2023-01-26T23:51:11.781Z,10.66
2023-01-26T23:53:39.913Z,10.65
2023-01-26T23:56:17.287Z,10.70
2023-01-26T23:58:45.796Z,10.71
